sensor_id;sensor_type;location;lat;lon;timestamp;P1;durP1;ratioP1;P2;durP2;ratioP2
19560;SDS011;9927;47.792;10.616;2023-06-26T00:00:30;15.80;;;11.20;;
19560;SDS011;9927;47.792;10.616;2023-06-26T00:02:59;13.43;;;10.38;;
19560;SDS011;9927;47.792;10.616;2023-06-26T00:05:27;12.93;;;10.35;;
19560;SDS011;9927;47.792;10.616;2023-06-26T00:07:54;12.18;;;9.82;;
19560;SDS011;9927;47.792;10.616;2023-06-26T00:10:21;13.20;;;10.13;;
19560;SDS011;9927;47.792;10.616;2023-06-26T00:12:49;10.18;;;9.18;;
19560;SDS011;9927;47.792;10.616;2023-06-26T00:15:16;12.05;;;10.02;;
19560;SDS011;9927;47.792;10.616;2023-06-26T00:17:43;13.07;;;10.18;;
19560;SDS011;9927;47.792;10.616;2023-06-26T00:20:11;14.48;;;10.38;;
19560;SDS011;9927;47.792;10.616;2023-06-26T00:22:38;12.10;;;10.00;;
19560;SDS011;9927;47.792;10.616;2023-06-26T00:25:07;12.70;;;9.30;;
19560;SDS011;9927;47.792;10.616;2023-06-26T00:27:35;10.60;;;9.50;;
19560;SDS011;9927;47.792;10.616;2023-06-26T00:30:02;11.93;;;10.30;;
19560;SDS011;9927;47.792;10.616;2023-06-26T00:32:30;11.55;;;10.02;;
19560;SDS011;9927;47.792;10.616;2023-06-26T00:34:57;12.48;;;10.10;;
19560;SDS011;9927;47.792;10.616;2023-06-26T00:37:24;11.70;;;10.25;;
19560;SDS011;9927;47.792;10.616;2023-06-26T00:39:51;12.93;;;11.13;;
19560;SDS011;9927;47.792;10.616;2023-06-26T00:42:19;10.60;;;9.43;;
19560;SDS011;9927;47.792;10.616;2023-06-26T00:44:46;13.23;;;9.57;;
19560;SDS011;9927;47.792;10.616;2023-06-26T00:47:14;10.93;;;9.27;;
19560;SDS011;9927;47.792;10.616;2023-06-26T00:49:42;11.95;;;9.60;;
19560;SDS011;9927;47.792;10.616;2023-06-26T00:52:09;11.07;;;9.07;;
19560;SDS011;9927;47.792;10.616;2023-06-26T00:54:37;11.10;;;8.98;;
19560;SDS011;9927;47.792;10.616;2023-06-26T00:57:04;12.48;;;10.63;;
19560;SDS011;9927;47.792;10.616;2023-06-26T00:59:32;11.20;;;9.65;;
19560;SDS011;9927;47.792;10.616;2023-06-26T01:01:59;11.00;;;9.50;;
19560;SDS011;9927;47.792;10.616;2023-06-26T01:04:26;10.32;;;9.15;;
19560;SDS011;9927;47.792;10.616;2023-06-26T01:07:02;12.85;;;10.02;;
19560;SDS011;9927;47.792;10.616;2023-06-26T01:09:30;11.85;;;9.82;;
19560;SDS011;9927;47.792;10.616;2023-06-26T01:11:58;11.80;;;9.23;;
19560;SDS011;9927;47.792;10.616;2023-06-26T01:14:25;12.30;;;10.32;;
19560;SDS011;9927;47.792;10.616;2023-06-26T01:16:53;11.40;;;10.20;;
19560;SDS011;9927;47.792;10.616;2023-06-26T01:19:24;11.25;;;9.82;;
19560;SDS011;9927;47.792;10.616;2023-06-26T01:22:19;10.45;;;9.13;;
19560;SDS011;9927;47.792;10.616;2023-06-26T01:27:56;10.90;;;9.80;;
19560;SDS011;9927;47.792;10.616;2023-06-26T01:30:23;12.57;;;9.77;;
19560;SDS011;9927;47.792;10.616;2023-06-26T01:32:52;10.75;;;9.55;;
19560;SDS011;9927;47.792;10.616;2023-06-26T01:35:20;10.80;;;9.35;;
19560;SDS011;9927;47.792;10.616;2023-06-26T01:37:47;10.80;;;9.40;;
19560;SDS011;9927;47.792;10.616;2023-06-26T01:40:15;10.52;;;9.43;;
19560;SDS011;9927;47.792;10.616;2023-06-26T01:42:42;11.38;;;9.57;;
19560;SDS011;9927;47.792;10.616;2023-06-26T01:47:43;11.05;;;8.77;;
19560;SDS011;9927;47.792;10.616;2023-06-26T01:50:21;10.20;;;9.15;;
19560;SDS011;9927;47.792;10.616;2023-06-26T01:52:56;9.93;;;8.93;;
19560;SDS011;9927;47.792;10.616;2023-06-26T01:55:36;11.82;;;10.05;;
19560;SDS011;9927;47.792;10.616;2023-06-26T01:58:10;11.48;;;9.60;;
19560;SDS011;9927;47.792;10.616;2023-06-26T02:00:38;12.13;;;10.60;;
19560;SDS011;9927;47.792;10.616;2023-06-26T02:03:05;10.55;;;8.60;;
19560;SDS011;9927;47.792;10.616;2023-06-26T02:05:35;18.33;;;9.50;;
19560;SDS011;9927;47.792;10.616;2023-06-26T02:08:03;10.98;;;9.50;;
19560;SDS011;9927;47.792;10.616;2023-06-26T02:10:31;14.38;;;10.50;;
19560;SDS011;9927;47.792;10.616;2023-06-26T02:12:58;10.25;;;9.20;;
19560;SDS011;9927;47.792;10.616;2023-06-26T02:15:25;11.35;;;8.80;;
19560;SDS011;9927;47.792;10.616;2023-06-26T02:17:52;12.45;;;10.13;;
19560;SDS011;9927;47.792;10.616;2023-06-26T02:20:20;10.73;;;9.15;;
19560;SDS011;9927;47.792;10.616;2023-06-26T02:22:47;11.40;;;9.38;;
19560;SDS011;9927;47.792;10.616;2023-06-26T02:25:14;9.48;;;8.57;;
19560;SDS011;9927;47.792;10.616;2023-06-26T02:27:43;10.10;;;8.98;;
19560;SDS011;9927;47.792;10.616;2023-06-26T02:30:10;11.70;;;9.02;;
19560;SDS011;9927;47.792;10.616;2023-06-26T02:32:37;9.75;;;8.75;;
19560;SDS011;9927;47.792;10.616;2023-06-26T02:35:05;9.75;;;8.75;;
19560;SDS011;9927;47.792;10.616;2023-06-26T02:37:33;9.85;;;8.52;;
19560;SDS011;9927;47.792;10.616;2023-06-26T02:40:00;10.40;;;8.77;;
19560;SDS011;9927;47.792;10.616;2023-06-26T02:42:28;10.32;;;9.23;;
19560;SDS011;9927;47.792;10.616;2023-06-26T02:44:55;10.50;;;8.88;;
19560;SDS011;9927;47.792;10.616;2023-06-26T02:47:22;10.10;;;8.95;;
19560;SDS011;9927;47.792;10.616;2023-06-26T02:49:50;10.02;;;8.13;;
19560;SDS011;9927;47.792;10.616;2023-06-26T02:52:17;10.02;;;8.13;;
19560;SDS011;9927;47.792;10.616;2023-06-26T02:54:45;12.65;;;9.23;;
19560;SDS011;9927;47.792;10.616;2023-06-26T02:57:12;12.05;;;9.43;;
19560;SDS011;9927;47.792;10.616;2023-06-26T02:59:41;11.15;;;9.38;;
19560;SDS011;9927;47.792;10.616;2023-06-26T03:02:08;10.70;;;9.15;;
19560;SDS011;9927;47.792;10.616;2023-06-26T03:04:35;9.65;;;8.65;;
19560;SDS011;9927;47.792;10.616;2023-06-26T03:07:03;9.50;;;8.50;;
19560;SDS011;9927;47.792;10.616;2023-06-26T03:09:31;9.73;;;8.73;;
19560;SDS011;9927;47.792;10.616;2023-06-26T03:11:58;9.85;;;8.85;;
19560;SDS011;9927;47.792;10.616;2023-06-26T03:14:26;10.07;;;8.95;;
19560;SDS011;9927;47.792;10.616;2023-06-26T03:16:53;9.10;;;8.20;;
19560;SDS011;9927;47.792;10.616;2023-06-26T03:19:24;10.48;;;8.65;;
19560;SDS011;9927;47.792;10.616;2023-06-26T03:21:51;11.18;;;9.23;;
19560;SDS011;9927;47.792;10.616;2023-06-26T03:24:19;9.82;;;8.82;;
19560;SDS011;9927;47.792;10.616;2023-06-26T03:26:46;9.30;;;8.32;;
19560;SDS011;9927;47.792;10.616;2023-06-26T03:29:13;10.93;;;9.05;;
19560;SDS011;9927;47.792;10.616;2023-06-26T03:31:40;10.68;;;8.85;;
19560;SDS011;9927;47.792;10.616;2023-06-26T03:34:08;15.40;;;8.35;;
19560;SDS011;9927;47.792;10.616;2023-06-26T03:36:35;10.32;;;8.88;;
19560;SDS011;9927;47.792;10.616;2023-06-26T03:39:02;11.95;;;8.30;;
19560;SDS011;9927;47.792;10.616;2023-06-26T03:41:30;10.95;;;8.25;;
19560;SDS011;9927;47.792;10.616;2023-06-26T03:43:58;10.20;;;8.55;;
19560;SDS011;9927;47.792;10.616;2023-06-26T03:46:27;9.75;;;8.77;;
19560;SDS011;9927;47.792;10.616;2023-06-26T03:48:54;10.20;;;8.90;;
19560;SDS011;9927;47.792;10.616;2023-06-26T03:51:21;10.73;;;9.60;;
19560;SDS011;9927;47.792;10.616;2023-06-26T03:53:48;11.68;;;9.15;;
19560;SDS011;9927;47.792;10.616;2023-06-26T03:56:16;9.80;;;8.85;;
19560;SDS011;9927;47.792;10.616;2023-06-26T03:58:43;11.35;;;9.63;;
19560;SDS011;9927;47.792;10.616;2023-06-26T04:01:10;11.98;;;10.02;;
19560;SDS011;9927;47.792;10.616;2023-06-26T04:03:38;11.75;;;9.82;;
19560;SDS011;9927;47.792;10.616;2023-06-26T04:06:05;12.63;;;10.35;;
19560;SDS011;9927;47.792;10.616;2023-06-26T04:08:32;11.20;;;9.25;;
19560;SDS011;9927;47.792;10.616;2023-06-26T04:10:59;9.88;;;8.80;;
19560;SDS011;9927;47.792;10.616;2023-06-26T04:13:27;9.90;;;8.90;;
19560;SDS011;9927;47.792;10.616;2023-06-26T04:15:54;10.45;;;8.93;;
19560;SDS011;9927;47.792;10.616;2023-06-26T04:18:21;9.00;;;8.10;;
19560;SDS011;9927;47.792;10.616;2023-06-26T04:21:08;10.27;;;8.73;;
19560;SDS011;9927;47.792;10.616;2023-06-26T04:23:38;9.65;;;8.57;;
19560;SDS011;9927;47.792;10.616;2023-06-26T04:26:06;9.50;;;8.57;;
19560;SDS011;9927;47.792;10.616;2023-06-26T04:28:35;10.88;;;9.15;;
19560;SDS011;9927;47.792;10.616;2023-06-26T04:31:02;9.82;;;8.75;;
19560;SDS011;9927;47.792;10.616;2023-06-26T04:33:30;10.45;;;9.07;;
19560;SDS011;9927;47.792;10.616;2023-06-26T04:35:58;9.05;;;8.23;;
19560;SDS011;9927;47.792;10.616;2023-06-26T04:38:26;9.63;;;8.63;;
19560;SDS011;9927;47.792;10.616;2023-06-26T04:40:53;8.85;;;8.05;;
19560;SDS011;9927;47.792;10.616;2023-06-26T04:43:20;10.77;;;8.85;;
19560;SDS011;9927;47.792;10.616;2023-06-26T04:45:48;9.55;;;8.65;;
19560;SDS011;9927;47.792;10.616;2023-06-26T04:48:15;11.45;;;9.05;;
19560;SDS011;9927;47.792;10.616;2023-06-26T04:50:42;11.27;;;9.93;;
19560;SDS011;9927;47.792;10.616;2023-06-26T04:53:10;9.52;;;8.57;;
19560;SDS011;9927;47.792;10.616;2023-06-26T04:55:37;9.13;;;8.18;;
19560;SDS011;9927;47.792;10.616;2023-06-26T04:58:05;9.93;;;8.82;;
19560;SDS011;9927;47.792;10.616;2023-06-26T05:00:32;10.27;;;9.27;;
19560;SDS011;9927;47.792;10.616;2023-06-26T05:03:03;9.73;;;8.73;;
19560;SDS011;9927;47.792;10.616;2023-06-26T05:05:30;9.77;;;8.73;;
19560;SDS011;9927;47.792;10.616;2023-06-26T05:07:57;9.65;;;8.75;;
19560;SDS011;9927;47.792;10.616;2023-06-26T05:10:25;9.45;;;8.52;;
19560;SDS011;9927;47.792;10.616;2023-06-26T05:12:52;8.95;;;8.05;;
19560;SDS011;9927;47.792;10.616;2023-06-26T05:15:19;9.40;;;8.55;;
19560;SDS011;9927;47.792;10.616;2023-06-26T05:17:46;9.77;;;8.85;;
19560;SDS011;9927;47.792;10.616;2023-06-26T05:20:14;10.65;;;9.55;;
19560;SDS011;9927;47.792;10.616;2023-06-26T05:22:41;10.18;;;8.98;;
19560;SDS011;9927;47.792;10.616;2023-06-26T05:25:09;9.38;;;8.48;;
19560;SDS011;9927;47.792;10.616;2023-06-26T05:27:37;9.57;;;8.63;;
19560;SDS011;9927;47.792;10.616;2023-06-26T05:30:05;10.30;;;9.30;;
19560;SDS011;9927;47.792;10.616;2023-06-26T05:32:34;11.27;;;10.05;;
19560;SDS011;9927;47.792;10.616;2023-06-26T05:35:03;11.23;;;10.15;;
19560;SDS011;9927;47.792;10.616;2023-06-26T05:37:31;12.25;;;10.60;;
19560;SDS011;9927;47.792;10.616;2023-06-26T05:40:00;11.27;;;9.98;;
19560;SDS011;9927;47.792;10.616;2023-06-26T05:42:30;9.80;;;8.80;;
19560;SDS011;9927;47.792;10.616;2023-06-26T05:44:57;10.52;;;8.73;;
19560;SDS011;9927;47.792;10.616;2023-06-26T05:47:25;10.65;;;9.65;;
19560;SDS011;9927;47.792;10.616;2023-06-26T05:49:52;8.98;;;8.07;;
19560;SDS011;9927;47.792;10.616;2023-06-26T05:52:20;11.60;;;9.18;;
19560;SDS011;9927;47.792;10.616;2023-06-26T05:54:47;10.13;;;8.32;;
19560;SDS011;9927;47.792;10.616;2023-06-26T05:57:15;10.85;;;9.30;;
19560;SDS011;9927;47.792;10.616;2023-06-26T05:59:43;10.43;;;8.18;;
19560;SDS011;9927;47.792;10.616;2023-06-26T06:02:11;12.68;;;8.80;;
19560;SDS011;9927;47.792;10.616;2023-06-26T06:04:39;10.43;;;8.82;;
19560;SDS011;9927;47.792;10.616;2023-06-26T06:07:06;8.52;;;7.72;;
19560;SDS011;9927;47.792;10.616;2023-06-26T06:09:33;10.05;;;7.47;;
19560;SDS011;9927;47.792;10.616;2023-06-26T06:12:00;9.07;;;7.65;;
19560;SDS011;9927;47.792;10.616;2023-06-26T06:14:30;7.80;;;6.28;;
19560;SDS011;9927;47.792;10.616;2023-06-26T06:16:57;7.90;;;7.20;;
19560;SDS011;9927;47.792;10.616;2023-06-26T06:19:25;7.00;;;6.25;;
19560;SDS011;9927;47.792;10.616;2023-06-26T06:21:52;6.50;;;6.00;;
19560;SDS011;9927;47.792;10.616;2023-06-26T06:24:20;6.88;;;6.25;;
19560;SDS011;9927;47.792;10.616;2023-06-26T06:26:47;6.82;;;6.32;;
19560;SDS011;9927;47.792;10.616;2023-06-26T06:29:14;7.60;;;6.90;;
19560;SDS011;9927;47.792;10.616;2023-06-26T06:31:42;6.30;;;5.80;;
19560;SDS011;9927;47.792;10.616;2023-06-26T06:34:09;6.47;;;5.97;;
19560;SDS011;9927;47.792;10.616;2023-06-26T06:36:36;6.95;;;6.35;;
19560;SDS011;9927;47.792;10.616;2023-06-26T06:39:03;6.80;;;6.30;;
19560;SDS011;9927;47.792;10.616;2023-06-26T06:41:31;6.28;;;5.68;;
19560;SDS011;9927;47.792;10.616;2023-06-26T06:43:58;7.22;;;6.63;;
19560;SDS011;9927;47.792;10.616;2023-06-26T06:46:25;6.18;;;5.68;;
19560;SDS011;9927;47.792;10.616;2023-06-26T06:48:53;6.47;;;6.07;;
19560;SDS011;9927;47.792;10.616;2023-06-26T06:51:21;6.47;;;6.03;;
19560;SDS011;9927;47.792;10.616;2023-06-26T06:53:48;6.10;;;5.70;;
19560;SDS011;9927;47.792;10.616;2023-06-26T06:56:15;6.40;;;5.93;;
19560;SDS011;9927;47.792;10.616;2023-06-26T06:58:43;6.85;;;6.35;;
19560;SDS011;9927;47.792;10.616;2023-06-26T07:01:13;6.30;;;5.80;;
19560;SDS011;9927;47.792;10.616;2023-06-26T07:03:40;6.32;;;5.85;;
19560;SDS011;9927;47.792;10.616;2023-06-26T07:06:08;6.40;;;5.80;;
19560;SDS011;9927;47.792;10.616;2023-06-26T07:08:35;7.00;;;5.68;;
19560;SDS011;9927;47.792;10.616;2023-06-26T07:11:02;11.88;;;5.82;;
19560;SDS011;9927;47.792;10.616;2023-06-26T07:13:30;6.18;;;5.78;;
19560;SDS011;9927;47.792;10.616;2023-06-26T07:15:58;6.47;;;5.97;;
19560;SDS011;9927;47.792;10.616;2023-06-26T07:18:25;5.88;;;5.38;;
19560;SDS011;9927;47.792;10.616;2023-06-26T07:20:52;6.53;;;5.90;;
19560;SDS011;9927;47.792;10.616;2023-06-26T07:23:22;6.43;;;6.03;;
19560;SDS011;9927;47.792;10.616;2023-06-26T07:25:49;6.30;;;5.80;;
19560;SDS011;9927;47.792;10.616;2023-06-26T07:28:16;6.13;;;5.72;;
19560;SDS011;9927;47.792;10.616;2023-06-26T07:30:44;6.30;;;5.80;;
19560;SDS011;9927;47.792;10.616;2023-06-26T07:33:11;5.40;;;5.10;;
19560;SDS011;9927;47.792;10.616;2023-06-26T07:35:38;6.00;;;5.50;;
19560;SDS011;9927;47.792;10.616;2023-06-26T07:38:05;5.97;;;5.57;;
19560;SDS011;9927;47.792;10.616;2023-06-26T07:40:33;5.50;;;5.15;;
19560;SDS011;9927;47.792;10.616;2023-06-26T07:43:00;5.82;;;5.35;;
19560;SDS011;9927;47.792;10.616;2023-06-26T07:45:28;6.30;;;5.80;;
19560;SDS011;9927;47.792;10.616;2023-06-26T07:47:55;6.45;;;5.95;;
19560;SDS011;9927;47.792;10.616;2023-06-26T07:50:23;6.05;;;5.55;;
19560;SDS011;9927;47.792;10.616;2023-06-26T07:52:50;6.70;;;5.93;;
19560;SDS011;9927;47.792;10.616;2023-06-26T07:55:19;7.15;;;5.80;;
19560;SDS011;9927;47.792;10.616;2023-06-26T07:57:47;5.93;;;5.53;;
19560;SDS011;9927;47.792;10.616;2023-06-26T08:00:14;6.30;;;5.80;;
19560;SDS011;9927;47.792;10.616;2023-06-26T08:02:42;6.10;;;5.70;;
19560;SDS011;9927;47.792;10.616;2023-06-26T08:05:10;8.60;;;5.55;;
19560;SDS011;9927;47.792;10.616;2023-06-26T08:07:37;6.70;;;5.88;;
19560;SDS011;9927;47.792;10.616;2023-06-26T08:10:05;7.53;;;5.78;;
19560;SDS011;9927;47.792;10.616;2023-06-26T08:12:33;6.10;;;5.65;;
19560;SDS011;9927;47.792;10.616;2023-06-26T08:15:00;6.10;;;5.60;;
19560;SDS011;9927;47.792;10.616;2023-06-26T08:17:29;5.72;;;5.32;;
19560;SDS011;9927;47.792;10.616;2023-06-26T08:19:56;5.50;;;5.20;;
19560;SDS011;9927;47.792;10.616;2023-06-26T08:22:24;5.35;;;4.97;;
19560;SDS011;9927;47.792;10.616;2023-06-26T08:24:51;5.45;;;4.93;;
19560;SDS011;9927;47.792;10.616;2023-06-26T08:27:18;5.07;;;4.72;;
19560;SDS011;9927;47.792;10.616;2023-06-26T08:29:46;5.75;;;5.35;;
19560;SDS011;9927;47.792;10.616;2023-06-26T08:32:13;6.00;;;5.50;;
19560;SDS011;9927;47.792;10.616;2023-06-26T08:34:40;6.18;;;5.32;;
19560;SDS011;9927;47.792;10.616;2023-06-26T08:37:08;5.70;;;5.30;;
19560;SDS011;9927;47.792;10.616;2023-06-26T08:39:38;5.13;;;4.82;;
19560;SDS011;9927;47.792;10.616;2023-06-26T08:42:05;4.68;;;4.35;;
19560;SDS011;9927;47.792;10.616;2023-06-26T08:44:32;5.00;;;4.60;;
19560;SDS011;9927;47.792;10.616;2023-06-26T08:47:00;5.57;;;5.18;;
19560;SDS011;9927;47.792;10.616;2023-06-26T08:49:30;5.47;;;4.97;;
19560;SDS011;9927;47.792;10.616;2023-06-26T08:52:10;5.40;;;5.00;;
19560;SDS011;9927;47.792;10.616;2023-06-26T08:54:57;4.55;;;4.35;;
19560;SDS011;9927;47.792;10.616;2023-06-26T08:57:26;4.90;;;4.60;;
19560;SDS011;9927;47.792;10.616;2023-06-26T08:59:54;4.25;;;3.95;;
19560;SDS011;9927;47.792;10.616;2023-06-26T09:02:22;5.15;;;4.78;;
19560;SDS011;9927;47.792;10.616;2023-06-26T09:04:49;5.05;;;4.50;;
19560;SDS011;9927;47.792;10.616;2023-06-26T09:07:17;4.95;;;4.65;;
19560;SDS011;9927;47.792;10.616;2023-06-26T09:09:45;6.53;;;5.10;;
19560;SDS011;9927;47.792;10.616;2023-06-26T09:12:13;5.43;;;4.90;;
19560;SDS011;9927;47.792;10.616;2023-06-26T09:14:40;6.50;;;4.78;;
19560;SDS011;9927;47.792;10.616;2023-06-26T09:17:08;6.15;;;5.45;;
19560;SDS011;9927;47.792;10.616;2023-06-26T09:19:36;5.15;;;4.70;;
19560;SDS011;9927;47.792;10.616;2023-06-26T09:22:10;5.10;;;4.70;;
19560;SDS011;9927;47.792;10.616;2023-06-26T09:24:40;5.47;;;4.82;;
19560;SDS011;9927;47.792;10.616;2023-06-26T09:27:08;5.43;;;4.95;;
19560;SDS011;9927;47.792;10.616;2023-06-26T09:29:36;6.72;;;5.53;;
19560;SDS011;9927;47.792;10.616;2023-06-26T09:32:07;5.85;;;5.38;;
19560;SDS011;9927;47.792;10.616;2023-06-26T09:34:36;6.20;;;5.60;;
19560;SDS011;9927;47.792;10.616;2023-06-26T09:37:03;5.70;;;5.20;;
19560;SDS011;9927;47.792;10.616;2023-06-26T09:39:31;6.50;;;5.60;;
19560;SDS011;9927;47.792;10.616;2023-06-26T09:41:59;7.75;;;5.40;;
19560;SDS011;9927;47.792;10.616;2023-06-26T09:44:32;7.68;;;5.75;;
19560;SDS011;9927;47.792;10.616;2023-06-26T09:47:01;6.35;;;5.60;;
19560;SDS011;9927;47.792;10.616;2023-06-26T09:49:30;6.38;;;5.85;;
19560;SDS011;9927;47.792;10.616;2023-06-26T09:51:59;11.55;;;5.68;;
19560;SDS011;9927;47.792;10.616;2023-06-26T09:54:28;4.90;;;4.60;;
19560;SDS011;9927;47.792;10.616;2023-06-26T09:57:06;6.90;;;6.20;;
19560;SDS011;9927;47.792;10.616;2023-06-26T09:59:38;6.75;;;5.97;;
19560;SDS011;9927;47.792;10.616;2023-06-26T10:02:06;6.47;;;5.80;;
19560;SDS011;9927;47.792;10.616;2023-06-26T10:04:35;6.20;;;5.60;;
19560;SDS011;9927;47.792;10.616;2023-06-26T10:07:04;5.68;;;5.25;;
19560;SDS011;9927;47.792;10.616;2023-06-26T10:09:33;6.75;;;5.82;;
19560;SDS011;9927;47.792;10.616;2023-06-26T10:12:06;6.78;;;6.18;;
19560;SDS011;9927;47.792;10.616;2023-06-26T10:14:41;7.05;;;6.03;;
19560;SDS011;9927;47.792;10.616;2023-06-26T10:17:14;6.95;;;6.38;;
19560;SDS011;9927;47.792;10.616;2023-06-26T10:19:44;6.88;;;6.30;;
19560;SDS011;9927;47.792;10.616;2023-06-26T10:22:12;6.57;;;5.93;;
19560;SDS011;9927;47.792;10.616;2023-06-26T10:24:43;11.25;;;7.82;;
19560;SDS011;9927;47.792;10.616;2023-06-26T10:27:17;6.70;;;6.10;;
19560;SDS011;9927;47.792;10.616;2023-06-26T10:29:47;7.15;;;6.55;;
19560;SDS011;9927;47.792;10.616;2023-06-26T10:32:17;8.32;;;6.82;;
19560;SDS011;9927;47.792;10.616;2023-06-26T10:34:47;9.55;;;6.38;;
19560;SDS011;9927;47.792;10.616;2023-06-26T10:37:14;6.45;;;5.85;;
19560;SDS011;9927;47.792;10.616;2023-06-26T10:39:51;8.40;;;6.65;;
19560;SDS011;9927;47.792;10.616;2023-06-26T10:42:37;7.45;;;6.68;;
19560;SDS011;9927;47.792;10.616;2023-06-26T10:45:14;8.18;;;7.18;;
19560;SDS011;9927;47.792;10.616;2023-06-26T10:47:45;7.47;;;6.32;;
19560;SDS011;9927;47.792;10.616;2023-06-26T10:50:34;7.70;;;6.90;;
19560;SDS011;9927;47.792;10.616;2023-06-26T10:53:11;7.55;;;6.82;;
19560;SDS011;9927;47.792;10.616;2023-06-26T10:58:28;10.32;;;6.90;;
19560;SDS011;9927;47.792;10.616;2023-06-26T11:03:44;7.28;;;6.57;;
19560;SDS011;9927;47.792;10.616;2023-06-26T11:06:16;7.88;;;6.97;;
19560;SDS011;9927;47.792;10.616;2023-06-26T11:08:51;8.38;;;7.50;;
19560;SDS011;9927;47.792;10.616;2023-06-26T11:14:24;8.30;;;7.25;;
19560;SDS011;9927;47.792;10.616;2023-06-26T11:16:55;7.50;;;6.80;;
19560;SDS011;9927;47.792;10.616;2023-06-26T11:19:24;7.68;;;6.97;;
19560;SDS011;9927;47.792;10.616;2023-06-26T11:22:03;7.70;;;7.00;;
19560;SDS011;9927;47.792;10.616;2023-06-26T11:24:32;7.93;;;7.00;;
19560;SDS011;9927;47.792;10.616;2023-06-26T11:27:00;8.25;;;7.45;;
19560;SDS011;9927;47.792;10.616;2023-06-26T11:29:29;8.85;;;6.97;;
19560;SDS011;9927;47.792;10.616;2023-06-26T11:32:00;8.43;;;7.53;;
19560;SDS011;9927;47.792;10.616;2023-06-26T11:34:32;7.68;;;6.60;;
19560;SDS011;9927;47.792;10.616;2023-06-26T11:37:00;9.23;;;8.07;;
19560;SDS011;9927;47.792;10.616;2023-06-26T11:39:28;8.20;;;7.40;;
19560;SDS011;9927;47.792;10.616;2023-06-26T11:41:55;8.02;;;7.38;;
19560;SDS011;9927;47.792;10.616;2023-06-26T11:44:23;6.72;;;6.22;;
19560;SDS011;9927;47.792;10.616;2023-06-26T11:46:53;6.60;;;6.10;;
19560;SDS011;9927;47.792;10.616;2023-06-26T11:49:22;7.60;;;6.60;;
19560;SDS011;9927;47.792;10.616;2023-06-26T11:51:52;6.78;;;6.28;;
19560;SDS011;9927;47.792;10.616;2023-06-26T11:54:25;7.50;;;6.80;;
19560;SDS011;9927;47.792;10.616;2023-06-26T11:56:54;6.63;;;6.13;;
19560;SDS011;9927;47.792;10.616;2023-06-26T11:59:23;7.07;;;6.38;;
19560;SDS011;9927;47.792;10.616;2023-06-26T12:01:52;6.68;;;6.07;;
19560;SDS011;9927;47.792;10.616;2023-06-26T12:04:19;7.28;;;6.57;;
19560;SDS011;9927;47.792;10.616;2023-06-26T12:06:48;7.47;;;6.80;;
19560;SDS011;9927;47.792;10.616;2023-06-26T12:09:20;6.40;;;5.90;;
19560;SDS011;9927;47.792;10.616;2023-06-26T12:11:48;6.93;;;6.32;;
19560;SDS011;9927;47.792;10.616;2023-06-26T12:14:20;7.53;;;6.75;;
19560;SDS011;9927;47.792;10.616;2023-06-26T12:16:49;7.88;;;7.07;;
19560;SDS011;9927;47.792;10.616;2023-06-26T12:19:16;7.07;;;6.47;;
19560;SDS011;9927;47.792;10.616;2023-06-26T12:21:44;7.32;;;6.63;;
19560;SDS011;9927;47.792;10.616;2023-06-26T12:24:16;8.07;;;7.28;;
19560;SDS011;9927;47.792;10.616;2023-06-26T12:26:45;7.13;;;6.43;;
19560;SDS011;9927;47.792;10.616;2023-06-26T12:29:14;7.53;;;6.93;;
19560;SDS011;9927;47.792;10.616;2023-06-26T12:31:44;7.60;;;7.00;;
19560;SDS011;9927;47.792;10.616;2023-06-26T12:34:13;7.25;;;6.55;;
19560;SDS011;9927;47.792;10.616;2023-06-26T12:36:45;7.47;;;6.80;;
19560;SDS011;9927;47.792;10.616;2023-06-26T12:39:19;9.18;;;6.80;;
19560;SDS011;9927;47.792;10.616;2023-06-26T12:41:54;7.47;;;6.68;;
19560;SDS011;9927;47.792;10.616;2023-06-26T12:44:28;7.10;;;6.50;;
19560;SDS011;9927;47.792;10.616;2023-06-26T12:46:57;7.38;;;6.63;;
19560;SDS011;9927;47.792;10.616;2023-06-26T12:49:34;8.15;;;7.22;;
19560;SDS011;9927;47.792;10.616;2023-06-26T12:52:13;8.27;;;7.57;;
19560;SDS011;9927;47.792;10.616;2023-06-26T12:54:44;7.03;;;6.43;;
19560;SDS011;9927;47.792;10.616;2023-06-26T12:57:13;7.28;;;6.70;;
19560;SDS011;9927;47.792;10.616;2023-06-26T12:59:41;7.45;;;6.75;;
19560;SDS011;9927;47.792;10.616;2023-06-26T13:02:09;7.90;;;7.10;;
19560;SDS011;9927;47.792;10.616;2023-06-26T13:04:40;7.43;;;6.57;;
19560;SDS011;9927;47.792;10.616;2023-06-26T13:07:08;6.90;;;6.30;;
19560;SDS011;9927;47.792;10.616;2023-06-26T13:09:35;6.03;;;5.53;;
19560;SDS011;9927;47.792;10.616;2023-06-26T13:12:04;7.30;;;6.60;;
19560;SDS011;9927;47.792;10.616;2023-06-26T13:14:32;7.32;;;6.65;;
19560;SDS011;9927;47.792;10.616;2023-06-26T13:17:00;8.50;;;7.03;;
19560;SDS011;9927;47.792;10.616;2023-06-26T13:19:28;7.13;;;6.55;;
19560;SDS011;9927;47.792;10.616;2023-06-26T13:21:56;7.03;;;6.53;;
19560;SDS011;9927;47.792;10.616;2023-06-26T13:24:23;6.75;;;6.25;;
19560;SDS011;9927;47.792;10.616;2023-06-26T13:26:51;6.93;;;6.30;;
19560;SDS011;9927;47.792;10.616;2023-06-26T13:29:18;6.90;;;6.30;;
19560;SDS011;9927;47.792;10.616;2023-06-26T13:31:46;7.93;;;7.15;;
19560;SDS011;9927;47.792;10.616;2023-06-26T13:34:20;7.45;;;6.75;;
19560;SDS011;9927;47.792;10.616;2023-06-26T13:36:51;6.78;;;6.20;;
19560;SDS011;9927;47.792;10.616;2023-06-26T13:39:18;6.63;;;6.10;;
19560;SDS011;9927;47.792;10.616;2023-06-26T13:41:45;6.70;;;6.10;;
19560;SDS011;9927;47.792;10.616;2023-06-26T13:44:13;7.75;;;6.90;;
19560;SDS011;9927;47.792;10.616;2023-06-26T13:47:00;7.65;;;6.95;;
19560;SDS011;9927;47.792;10.616;2023-06-26T13:49:27;8.07;;;7.28;;
19560;SDS011;9927;47.792;10.616;2023-06-26T13:51:54;7.10;;;6.40;;
19560;SDS011;9927;47.792;10.616;2023-06-26T13:54:22;7.47;;;6.88;;
19560;SDS011;9927;47.792;10.616;2023-06-26T13:56:49;6.82;;;6.22;;
19560;SDS011;9927;47.792;10.616;2023-06-26T13:59:16;7.80;;;6.78;;
19560;SDS011;9927;47.792;10.616;2023-06-26T14:01:47;7.20;;;6.60;;
19560;SDS011;9927;47.792;10.616;2023-06-26T14:04:14;7.82;;;7.03;;
19560;SDS011;9927;47.792;10.616;2023-06-26T14:06:42;8.23;;;7.28;;
19560;SDS011;9927;47.792;10.616;2023-06-26T14:09:09;7.82;;;6.70;;
19560;SDS011;9927;47.792;10.616;2023-06-26T14:11:36;7.97;;;7.18;;
19560;SDS011;9927;47.792;10.616;2023-06-26T14:14:04;8.02;;;7.22;;
19560;SDS011;9927;47.792;10.616;2023-06-26T14:16:34;8.35;;;6.65;;
19560;SDS011;9927;47.792;10.616;2023-06-26T14:19:01;6.97;;;6.47;;
19560;SDS011;9927;47.792;10.616;2023-06-26T14:21:28;7.05;;;6.55;;
19560;SDS011;9927;47.792;10.616;2023-06-26T14:23:56;7.10;;;6.38;;
19560;SDS011;9927;47.792;10.616;2023-06-26T14:26:23;6.90;;;6.28;;
19560;SDS011;9927;47.792;10.616;2023-06-26T14:28:50;7.10;;;6.47;;
19560;SDS011;9927;47.792;10.616;2023-06-26T14:31:18;7.35;;;6.70;;
19560;SDS011;9927;47.792;10.616;2023-06-26T14:33:45;7.53;;;6.75;;
19560;SDS011;9927;47.792;10.616;2023-06-26T14:36:12;7.78;;;7.18;;
19560;SDS011;9927;47.792;10.616;2023-06-26T14:38:39;7.32;;;6.70;;
19560;SDS011;9927;47.792;10.616;2023-06-26T14:41:07;7.28;;;6.50;;
19560;SDS011;9927;47.792;10.616;2023-06-26T14:43:35;9.55;;;7.07;;
19560;SDS011;9927;47.792;10.616;2023-06-26T14:46:03;8.55;;;7.07;;
19560;SDS011;9927;47.792;10.616;2023-06-26T14:48:30;9.73;;;6.78;;
19560;SDS011;9927;47.792;10.616;2023-06-26T14:50:58;7.90;;;7.18;;
19560;SDS011;9927;47.792;10.616;2023-06-26T14:53:26;7.35;;;6.75;;
19560;SDS011;9927;47.792;10.616;2023-06-26T14:55:54;8.32;;;6.68;;
19560;SDS011;9927;47.792;10.616;2023-06-26T14:58:21;7.57;;;6.88;;
19560;SDS011;9927;47.792;10.616;2023-06-26T15:00:49;8.32;;;7.43;;
19560;SDS011;9927;47.792;10.616;2023-06-26T15:03:16;7.35;;;6.65;;
19560;SDS011;9927;47.792;10.616;2023-06-26T15:05:44;7.80;;;7.10;;